Time;durP1;ratioP1;P1;durP2;ratioP2;P2;SDS_P1;SDS_P2;PMS_P1;PMS_P2;Temp;Humidity;BMP_temperature;BMP_pressure;BME280_temperature;BME280_humidity;BME280_pressure;Samples;Min_cycle;Max_cycle;Signal;HPM_P1;HPM_P2
2022/09/21 00:00:24;;;;;;;7.47;1.05;;;8.60;99.90;;;;;;5058320;28;20083;-86
2022/09/21 00:02:50;;;;;;;2.97;0.70;;;8.60;99.90;;;;;;5058339;28;20057;-86
2022/09/21 00:05:17;;;;;;;2.45;0.77;;;8.50;99.90;;;;;;5057992;28;20048;-87
2022/09/21 00:07:43;;;;;;;3.08;0.63;;;8.50;99.90;;;;;;5058092;28;20056;-87
2022/09/21 00:10:09;;;;;;;2.85;0.98;;;8.50;99.90;;;;;;5058208;28;20086;-86
2022/09/21 00:12:37;;;;;;;3.28;1.30;;;8.50;99.90;;;;;;5058040;28;20052;-87
2022/09/21 00:15:08;;;;;;;4.68;0.85;;;8.50;99.90;;;;;;5058408;28;20123;-86
2022/09/21 00:17:34;;;;;;;3.75;0.90;;;8.40;99.90;;;;;;5058401;28;20057;-87
2022/09/21 00:20:01;;;;;;;6.93;1.10;;;8.40;99.90;;;;;;5049806;28;20495;-86
2022/09/21 00:22:27;;;;;;;5.20;0.90;;;8.40;99.90;;;;;;5057820;28;20043;-86
2022/09/21 00:24:54;;;;;;;3.85;0.90;;;8.40;99.90;;;;;;5057861;28;20090;-87
2022/09/21 00:27:21;;;;;;;3.90;0.88;;;8.40;99.90;;;;;;5057850;28;20032;-86
2022/09/21 00:29:47;;;;;;;3.92;1.50;;;8.40;99.90;;;;;;5058146;28;20045;-86
2022/09/21 00:32:14;;;;;;;6.88;1.58;;;8.40;99.90;;;;;;5075773;28;20052;-87
2022/09/21 00:34:40;;;;;;;3.92;1.35;;;8.40;99.90;;;;;;5075635;28;20067;-87
2022/09/21 00:37:08;;;;;;;4.15;1.80;;;8.40;99.90;;;;;;5057796;28;20494;-87
2022/09/21 00:39:34;;;;;;;4.38;1.27;;;8.40;99.90;;;;;;5057537;28;20052;-87
2022/09/21 00:42:00;;;;;;;5.72;1.55;;;8.40;99.90;;;;;;5057569;28;20049;-87
2022/09/21 00:44:34;;;;;;;5.90;1.75;;;8.40;99.90;;;;;;5057538;28;20049;-86
2022/09/21 00:47:11;;;;;;;4.80;1.67;;;8.30;99.90;;;;;;5057763;28;20423;-86
2022/09/21 00:49:38;;;;;;;4.18;1.83;;;8.30;99.90;;;;;;5057303;28;20044;-87
2022/09/21 00:52:05;;;;;;;3.97;2.60;;;8.30;99.90;;;;;;5057463;28;20072;-86
2022/09/21 00:54:43;;;;;;;6.75;2.35;;;8.30;99.90;;;;;;5057582;28;20048;-86
2022/09/21 00:57:10;;;;;;;5.35;2.40;;;8.30;99.90;;;;;;5057294;28;20056;-86
2022/09/21 00:59:37;;;;;;;5.72;2.17;;;8.20;99.90;;;;;;5057018;28;20053;-87
2022/09/21 01:02:04;;;;;;;3.97;1.92;;;8.20;99.90;;;;;;5056998;28;20056;-86
2022/09/21 01:04:30;;;;;;;5.85;2.40;;;8.20;99.90;;;;;;5071586;28;20067;-87
2022/09/21 01:07:00;;;;;;;6.00;2.30;;;8.20;99.90;;;;;;5037639;28;20041;-86
2022/09/21 01:09:27;;;;;;;5.18;2.50;;;8.20;99.90;;;;;;5037204;28;20049;-87
2022/09/21 01:12:28;;;;;;;6.75;2.38;;;8.30;99.90;;;;;;5037126;28;20040;-86
2022/09/21 01:15:12;;;;;;;6.72;2.72;;;8.30;99.90;;;;;;4973892;28;20059;-87
2022/09/21 01:17:41;;;;;;;8.90;2.38;;;8.30;99.90;;;;;;5030972;28;20484;-85
2022/09/21 01:20:07;;;;;;;5.35;2.53;;;8.30;99.90;;;;;;5036915;28;20045;-87
2022/09/21 01:22:44;;;;;;;7.13;2.20;;;8.20;99.90;;;;;;5037300;28;20041;-87
2022/09/21 01:25:31;;;;;;;7.60;2.45;;;8.30;99.90;;;;;;5036932;28;20055;-88
2022/09/21 01:27:57;;;;;;;9.68;2.70;;;8.20;99.90;;;;;;5037018;28;20041;-88
2022/09/21 01:30:24;;;;;;;6.85;2.50;;;8.20;99.90;;;;;;5037060;28;20250;-88
2022/09/21 01:33:05;;;;;;;5.90;2.50;;;8.20;99.90;;;;;;5036592;28;20045;-88
2022/09/21 01:35:37;;;;;;;5.95;2.40;;;8.20;99.90;;;;;;5036405;28;20045;-88
2022/09/21 01:38:16;;;;;;;5.60;2.45;;;8.20;99.90;;;;;;5036795;28;20049;-89
2022/09/21 01:40:49;;;;;;;4.55;1.90;;;8.20;99.90;;;;;;5036398;28;20093;-87
2022/09/21 01:43:25;;;;;;;6.47;2.53;;;8.20;99.90;;;;;;5054362;28;20096;-88
2022/09/21 01:45:53;;;;;;;7.50;2.33;;;8.10;99.90;;;;;;5036686;28;20053;-87
2022/09/21 01:48:22;;;;;;;3.92;1.85;;;8.10;99.90;;;;;;5054071;28;20483;-87
2022/09/21 01:50:53;;;;;;;5.75;2.97;;;8.10;99.90;;;;;;5054265;28;20045;-87
2022/09/21 01:53:25;;;;;;;5.22;2.30;;;8.10;99.90;;;;;;5036119;28;20037;-87
2022/09/21 01:55:58;;;;;;;4.60;2.15;;;8.00;99.90;;;;;;5036318;28;20049;-86
2022/09/21 01:58:35;;;;;;;5.25;2.38;;;8.00;99.90;;;;;;5019632;28;20047;-87
2022/09/21 02:01:03;;;;;;;6.15;2.25;;;8.00;99.90;;;;;;5036378;28;20045;-86
2022/09/21 02:03:35;;;;;;;5.32;2.00;;;7.90;99.90;;;;;;5035951;28;20049;-86
2022/09/21 02:06:03;;;;;;;6.20;2.20;;;7.90;99.90;;;;;;5051832;28;20048;-86
2022/09/21 02:08:31;;;;;;;5.75;2.25;;;7.80;99.90;;;;;;5057146;28;20056;-86
2022/09/21 02:10:59;;;;;;;7.78;2.58;;;7.80;99.90;;;;;;5055840;28;20044;-86
2022/09/21 02:13:30;;;;;;;6.32;2.17;;;7.80;99.90;;;;;;5056134;28;20551;-86
2022/09/21 02:16:02;;;;;;;3.67;1.73;;;7.80;99.90;;;;;;5055737;28;20545;-85
2022/09/21 02:18:46;;;;;;;4.10;2.10;;;7.80;99.90;;;;;;5056167;28;20088;-85
2022/09/21 02:21:50;;;;;;;5.85;2.28;;;7.90;99.90;;;;;;5055677;28;20040;-85
2022/09/21 02:24:38;;;;;;;5.85;1.80;;;7.80;99.90;;;;;;5043363;28;20071;-86
2022/09/21 02:27:19;;;;;;;5.90;2.20;;;7.80;99.90;;;;;;5056008;28;20517;-85
2022/09/21 02:30:18;;;;;;;4.85;2.35;;;7.90;99.90;;;;;;5055673;28;20063;-85
2022/09/21 02:33:25;;;;;;;5.97;2.00;;;7.80;99.90;;;;;;5013295;28;20056;-85
2022/09/21 02:36:07;;;;;;;5.65;1.85;;;7.90;99.90;;;;;;5017286;28;20056;-85
2022/09/21 02:38:59;;;;;;;6.30;1.90;;;7.90;99.90;;;;;;5055864;28;20114;-85
2022/09/21 02:41:35;;;;;;;4.47;1.80;;;7.90;99.90;;;;;;5055754;28;20041;-85
2022/09/21 02:44:05;;;;;;;6.95;2.40;;;7.90;99.90;;;;;;5055435;28;20044;-85
2022/09/21 02:46:40;;;;;;;4.90;1.67;;;7.90;99.90;;;;;;5055341;28;20045;-86
2022/09/21 02:49:18;;;;;;;4.78;1.73;;;7.90;99.90;;;;;;5055779;28;20079;-86
2022/09/21 02:51:50;;;;;;;5.70;2.17;;;8.00;99.90;;;;;;5055611;28;20048;-86
2022/09/21 02:54:21;;;;;;;6.28;2.28;;;7.90;99.90;;;;;;5055632;28;20083;-86
2022/09/21 02:56:50;;;;;;;4.28;1.90;;;7.90;99.90;;;;;;5073543;28;20106;-86
2022/09/21 02:59:16;;;;;;;5.97;2.08;;;8.00;99.90;;;;;;5055633;28;20079;-87
2022/09/21 03:01:43;;;;;;;5.57;2.83;;;8.00;99.90;;;;;;5073291;28;20451;-86
2022/09/21 03:04:09;;;;;;;6.45;2.35;;;8.00;99.90;;;;;;5055891;28;20076;-86
2022/09/21 03:06:35;;;;;;;4.78;2.33;;;8.00;99.90;;;;;;5057389;28;20040;-86
2022/09/21 03:09:01;;;;;;;6.85;2.25;;;7.90;99.90;;;;;;5057353;28;20124;-86
2022/09/21 03:11:26;;;;;;;5.72;1.90;;;7.90;99.90;;;;;;5039184;28;20436;-87
2022/09/21 03:13:52;;;;;;;5.38;2.00;;;7.90;99.90;;;;;;5039175;28;20041;-86
2022/09/21 03:16:18;;;;;;;6.72;2.03;;;7.90;99.90;;;;;;5039259;28;20527;-86
2022/09/21 03:18:43;;;;;;;5.15;1.92;;;7.90;99.90;;;;;;5039484;28;20041;-86
2022/09/21 03:21:12;;;;;;;7.18;2.03;;;7.90;99.90;;;;;;5038924;28;20409;-86
2022/09/21 03:23:39;;;;;;;4.35;1.80;;;7.90;99.90;;;;;;5038772;28;20041;-86
2022/09/21 03:26:05;;;;;;;5.20;1.92;;;8.00;99.90;;;;;;5039277;28;20049;-86
2022/09/21 03:28:34;;;;;;;7.07;2.20;;;8.00;99.90;;;;;;5039211;28;20396;-86
2022/09/21 03:31:00;;;;;;;9.73;2.55;;;8.10;99.90;;;;;;5038897;28;20191;-86
2022/09/21 03:33:25;;;;;;;4.32;1.63;;;8.10;99.90;;;;;;5039096;28;20127;-85
2022/09/21 03:35:51;;;;;;;7.93;2.03;;;8.10;99.90;;;;;;5056845;28;20045;-85
2022/09/21 03:38:19;;;;;;;5.35;1.67;;;8.20;99.90;;;;;;5056780;28;20048;-85
2022/09/21 03:40:47;;;;;;;8.45;2.30;;;8.20;99.90;;;;;;5056959;28;20503;-85
2022/09/21 03:43:13;;;;;;;6.63;1.83;;;8.20;99.90;;;;;;5056453;28;20504;-85
2022/09/21 03:45:40;;;;;;;4.55;2.25;;;8.10;99.90;;;;;;5056671;28;20080;-85
2022/09/21 03:48:06;;;;;;;5.82;1.90;;;8.20;99.90;;;;;;5056735;28;20051;-85
2022/09/21 03:50:32;;;;;;;9.52;2.00;;;8.20;99.90;;;;;;5056374;28;20127;-85
2022/09/21 03:52:57;;;;;;;5.18;2.13;;;8.20;99.90;;;;;;5056554;28;20488;-85
2022/09/21 03:55:23;;;;;;;7.22;2.60;;;8.10;99.90;;;;;;5056472;28;20041;-85
2022/09/21 03:57:49;;;;;;;8.90;2.50;;;8.20;99.90;;;;;;5056320;28;20487;-85
2022/09/21 04:00:15;;;;;;;5.90;2.45;;;8.20;99.90;;;;;;5038523;28;20048;-85
2022/09/21 04:02:41;;;;;;;5.25;2.15;;;8.10;99.90;;;;;;5038419;28;20052;-85
2022/09/21 04:05:14;;;;;;;5.38;1.92;;;8.10;99.90;;;;;;5046523;28;20044;-85
2022/09/21 04:07:41;;;;;;;6.53;1.90;;;8.10;99.90;;;;;;5058904;28;20052;-86
2022/09/21 04:10:13;;;;;;;9.52;2.17;;;8.10;99.90;;;;;;5058243;28;20045;-85
2022/09/21 04:12:42;;;;;;;13.20;2.90;;;8.10;99.90;;;;;;5058475;28;20052;-86
2022/09/21 04:15:10;;;;;;;5.25;2.10;;;8.10;99.90;;;;;;5057984;28;20123;-86
2022/09/21 04:17:36;;;;;;;9.52;2.67;;;8.10;99.90;;;;;;5058166;28;20090;-86
2022/09/21 04:20:02;;;;;;;5.85;2.20;;;8.10;99.90;;;;;;5057868;28;20044;-86
2022/09/21 04:22:28;;;;;;;6.90;1.95;;;8.20;99.90;;;;;;5057774;28;20132;-85
2022/09/21 04:24:54;;;;;;;6.60;2.00;;;8.10;99.90;;;;;;5057974;28;20080;-86
2022/09/21 04:27:19;;;;;;;7.03;2.55;;;8.20;99.90;;;;;;5057965;28;20045;-86
2022/09/21 04:29:48;;;;;;;5.63;2.35;;;8.20;99.90;;;;;;5057895;28;20041;-87
2022/09/21 04:32:13;;;;;;;6.13;2.03;;;8.20;99.90;;;;;;5057998;28;20381;-88
2022/09/21 04:34:39;;;;;;;5.00;2.08;;;8.20;99.90;;;;;;5057669;28;20048;-86
2022/09/21 04:37:10;;;;;;;4.22;1.83;;;8.20;99.90;;;;;;5075688;28;20064;-86
2022/09/21 04:39:36;;;;;;;5.32;2.08;;;8.30;99.90;;;;;;5057980;28;20052;-86
2022/09/21 04:42:02;;;;;;;5.38;2.13;;;8.20;99.90;;;;;;5057761;28;20123;-86
2022/09/21 04:44:29;;;;;;;7.05;2.50;;;8.30;99.90;;;;;;5057621;28;20082;-86
2022/09/21 04:46:59;;;;;;;6.50;2.20;;;8.30;99.90;;;;;;5075390;28;20044;-86
2022/09/21 04:49:24;;;;;;;6.95;2.40;;;8.30;99.90;;;;;;5075528;28;20040;-86
2022/09/21 04:51:50;;;;;;;5.10;2.25;;;8.30;99.90;;;;;;5057316;28;20048;-86
2022/09/21 04:54:16;;;;;;;6.32;2.63;;;8.30;99.90;;;;;;5075303;28;20487;-86
2022/09/21 04:56:42;;;;;;;8.88;2.78;;;8.30;99.90;;;;;;5057492;28;20076;-86
2022/09/21 04:59:08;;;;;;;6.57;2.70;;;8.30;99.90;;;;;;5057395;28;20048;-87
2022/09/21 05:01:33;;;;;;;5.18;2.17;;;8.20;99.90;;;;;;5057184;28;20127;-86
2022/09/21 05:04:01;;;;;;;4.78;2.13;;;8.20;99.90;;;;;;5057109;28;20036;-86
2022/09/21 05:06:32;;;;;;;6.35;2.10;;;8.20;99.90;;;;;;5056777;28;20058;-85
2022/09/21 05:11:42;;;;;;;6.13;2.30;;;8.20;99.90;;;;;;5056703;28;20098;-87
2022/09/21 05:14:08;;;;;;;7.05;2.53;;;8.20;99.90;;;;;;5055736;28;20044;-86
2022/09/21 05:16:34;;;;;;;4.65;2.10;;;8.20;99.90;;;;;;5056693;28;20052;-86
2022/09/21 05:18:59;;;;;;;5.70;2.10;;;8.10;99.90;;;;;;5056792;28;20036;-86
2022/09/21 05:21:25;;;;;;;5.47;1.98;;;8.10;99.90;;;;;;5056867;28;20509;-85
2022/09/21 05:23:51;;;;;;;8.77;2.83;;;8.10;99.90;;;;;;5056514;28;20401;-86
2022/09/21 05:26:17;;;;;;;6.18;1.90;;;8.10;99.90;;;;;;5055108;28;20102;-86
2022/09/21 05:32:39;;;;;;;6.15;2.15;;;8.00;99.90;;;;;;5056653;28;20080;-85
2022/09/21 05:35:43;;;;;;;5.95;2.28;;;8.00;99.90;;;;;;5056727;28;20061;-85
2022/09/21 05:38:18;;;;;;;6.88;2.45;;;8.10;99.90;;;;;;5056336;28;20076;-85
2022/09/21 05:40:49;;;;;;;6.50;2.50;;;8.20;99.90;;;;;;5056656;28;20084;-85
2022/09/21 05:43:15;;;;;;;7.72;3.80;;;8.20;99.90;;;;;;5056203;28;20060;-85
2022/09/21 05:46:04;;;;;;;7.30;4.20;;;8.20;99.90;;;;;;5056453;28;20094;-85
2022/09/21 05:48:41;;;;;;;11.55;3.83;;;8.20;99.90;;;;;;5056119;28;20056;-86
2022/09/21 05:51:16;;;;;;;7.18;4.05;;;8.20;99.90;;;;;;5073999;28;20052;-86
2022/09/21 05:53:48;;;;;;;8.38;4.60;;;8.30;99.90;;;;;;5056055;28;20040;-86
2022/09/21 05:56:30;;;;;;;5.88;3.88;;;8.30;99.90;;;;;;5056115;28;20434;-87
2022/09/21 05:59:21;;;;;;;8.77;3.95;;;8.40;99.90;;;;;;5056004;28;20087;-87
2022/09/21 06:02:01;;;;;;;7.22;4.28;;;8.40;99.90;;;;;;5055771;28;20070;-86
2022/09/21 06:04:27;;;;;;;9.45;3.90;;;8.50;99.90;;;;;;5073649;28;20067;-86
2022/09/21 06:06:53;;;;;;;6.22;3.30;;;8.60;99.90;;;;;;5055773;28;20105;-87
2022/09/21 06:09:25;;;;;;;6.07;3.20;;;8.70;99.90;;;;;;5056038;28;20057;-86
2022/09/21 06:15:37;;;;;;;5.45;2.45;;;8.90;99.90;;;;;;5055591;28;20056;-84
2022/09/21 06:18:04;;;;;;;7.90;3.10;;;9.10;99.90;;;;;;5055686;28;20044;-87
2022/09/21 06:27:51;;;;;;;9.35;3.22;;;9.60;99.90;;;;;;5073756;28;20074;-88
2022/09/21 06:30:17;;;;;;;11.00;3.65;;;9.90;99.90;;;;;;5055722;28;20044;-83
2022/09/21 06:32:42;;;;;;;7.28;3.53;;;10.00;99.90;;;;;;5052097;28;20094;-82
2022/09/21 06:35:08;;;;;;;8.45;3.25;;;10.20;99.90;;;;;;5061849;28;20049;-82
2022/09/21 06:37:34;;;;;;;7.50;3.33;;;10.30;99.90;;;;;;5035532;28;20127;-82
2022/09/21 06:39:59;;;;;;;8.57;3.78;;;10.40;99.90;;;;;;5053166;28;20045;-83
2022/09/21 06:42:26;;;;;;;7.60;2.75;;;10.50;99.90;;;;;;5053111;28;20055;-84
2022/09/21 06:44:52;;;;;;;6.82;2.85;;;10.70;99.90;;;;;;5053261;28;20044;-83
2022/09/21 06:47:17;;;;;;;6.85;2.70;;;10.70;99.90;;;;;;5052792;28;20397;-83
2022/09/21 06:49:43;;;;;;;6.55;3.00;;;10.80;99.90;;;;;;5053243;28;20042;-82
2022/09/21 06:52:09;;;;;;;6.55;2.85;;;10.90;99.90;;;;;;5053277;28;20048;-83
2022/09/21 06:54:35;;;;;;;6.13;3.63;;;11.00;99.90;;;;;;5035319;28;20102;-83
2022/09/21 06:57:02;;;;;;;4.68;2.60;;;11.10;99.90;;;;;;5026971;28;20082;-83
2022/09/21 06:59:27;;;;;;;8.45;3.30;;;11.10;99.90;;;;;;5035065;28;20127;-83
2022/09/21 07:08:38;;;;;;;5.23;2.90;;;11.40;99.90;;;;;;4995549;22;20045;-79
2022/09/21 07:11:04;;;;;;;5.38;2.55;;;11.50;99.90;;;;;;5006358;28;20062;-81
2022/09/21 07:13:30;;;;;;;6.63;2.50;;;11.60;99.90;;;;;;4997408;28;20092;-81
2022/09/21 07:15:56;;;;;;;7.47;2.58;;;11.70;99.90;;;;;;5013200;28;20065;-81
2022/09/21 09:03:44;;;;;;;3.28;0.60;;;15.50;99.90;;;;;;5468743;22;20058;-79
2022/09/21 09:06:23;;;;;;;4.53;0.60;;;15.60;99.90;;;;;;4969990;28;20062;-79
2022/09/21 09:08:59;;;;;;;6.68;0.65;;;15.80;99.90;;;;;;4943161;28;20047;-79
2022/09/21 09:11:33;;;;;;;5.60;0.98;;;16.00;99.90;;;;;;4976070;28;20042;-80
2022/09/21 09:14:18;;;;;;;9.77;0.85;;;15.90;99.90;;;;;;4958466;28;20054;-80
2022/09/21 09:16:55;;;;;;;4.97;0.70;;;16.00;99.90;;;;;;4975875;28;20035;-80
2022/09/21 09:19:34;;;;;;;6.28;0.70;;;16.10;99.90;;;;;;4975986;28;20122;-79
2022/09/21 09:22:03;;;;;;;5.25;0.98;;;16.20;99.90;;;;;;4958608;28;20082;-80
2022/09/21 09:24:37;;;;;;;5.20;1.45;;;16.20;99.90;;;;;;4975817;28;20497;-80
2022/09/21 09:27:31;;;;;;;5.57;0.68;;;16.30;99.90;;;;;;4958528;28;20043;-80
2022/09/21 09:30:20;;;;;;;5.45;0.85;;;16.40;99.90;;;;;;4964971;28;20050;-80
2022/09/21 09:33:04;;;;;;;6.40;0.80;;;16.50;99.90;;;;;;4938027;29;20071;-80
2022/09/21 09:54:16;;;;;;;7.60;0.77;;;16.60;99.90;;;;;;4958127;28;20042;-80
2022/09/21 09:56:42;;;;;;;7.00;0.85;;;16.30;99.90;;;;;;4938842;29;20059;-80
2022/09/21 09:59:31;;;;;;;4.55;0.70;;;16.30;99.90;;;;;;4938618;29;20124;-82
2022/09/21 10:05:43;;;;;;;8.38;0.70;;;16.60;99.90;;;;;;4951896;28;20141;-81
2022/09/21 10:08:43;;;;;;;3.47;0.50;;;16.80;99.90;;;;;;4957671;28;20120;-81
2022/09/21 10:11:11;;;;;;;7.18;0.80;;;17.00;99.90;;;;;;4957904;28;20058;-81
2022/09/21 10:13:40;;;;;;;5.47;0.70;;;17.00;99.90;;;;;;4974743;28;20043;-80
2022/09/21 10:16:08;;;;;;;4.35;0.60;;;17.10;99.90;;;;;;4980507;28;20052;-80
2022/09/21 10:19:00;;;;;;;4.28;0.65;;;17.10;99.90;;;;;;5013991;28;20053;-81
2022/09/21 10:32:00;;;;;;;4.43;1.08;;;17.00;99.90;;;;;;4991866;28;20037;-80
2022/09/21 10:35:03;;;;;;;6.15;0.80;;;17.20;99.90;;;;;;4975790;28;20054;-79
2022/09/21 10:37:40;;;;;;;4.97;0.90;;;17.50;99.90;;;;;;4992124;28;20065;-80
2022/09/21 10:40:23;;;;;;;5.80;0.70;;;17.80;99.90;;;;;;4974137;28;20129;-79
2022/09/21 10:42:52;;;;;;;4.55;0.85;;;17.90;99.90;;;;;;4971683;28;20534;-79
2022/09/21 10:45:20;;;;;;;4.00;0.73;;;18.00;99.90;;;;;;4972735;28;20067;-80
2022/09/21 10:47:48;;;;;;;3.15;0.60;;;18.10;99.90;;;;;;4956299;28;20050;-80
2022/09/21 10:50:36;;;;;;;4.90;0.70;;;18.10;99.90;;;;;;4972472;28;20047;-79
2022/09/21 10:53:18;;;;;;;5.53;0.65;;;17.90;99.90;;;;;;4972435;28;20061;-81
2022/09/21 10:55:52;;;;;;;2.70;0.73;;;17.90;99.90;;;;;;4972498;28;20422;-80
2022/09/21 10:58:18;;;;;;;4.03;0.50;;;18.10;99.90;;;;;;4972409;28;20085;-81
2022/09/21 11:00:47;;;;;;;5.05;0.50;;;18.20;99.90;;;;;;4972644;28;20078;-80
2022/09/21 11:03:41;;;;;;;4.13;0.60;;;18.20;99.90;;;;;;4956214;28;20057;-80
2022/09/21 11:06:29;;;;;;;3.65;0.60;;;18.30;99.90;;;;;;4972274;28;20054;-80
2022/09/21 11:09:11;;;;;;;5.28;0.70;;;18.30;99.90;;;;;;4969090;28;20055;-81
2022/09/21 11:11:59;;;;;;;4.90;0.60;;;18.40;99.90;;;;;;4972635;28;20151;-80
2022/09/21 11:14:40;;;;;;;4.05;0.57;;;18.50;99.90;;;;;;4959304;28;20871;-79
2022/09/21 11:17:27;;;;;;;5.68;0.80;;;18.60;99.90;;;;;;4976696;28;20126;-79
2022/09/21 11:20:10;;;;;;;4.32;0.65;;;18.70;99.90;;;;;;4993704;28;20486;-79
2022/09/21 11:22:35;;;;;;;;;;;18.70;99.90;;;;;;4957455;28;20374;-79
2022/09/21 11:25:39;;;;;;;4.82;0.70;;;18.80;99.90;;;;;;4974460;28;19929;-80
2022/09/21 11:28:27;;;;;;;3.90;0.60;;;18.90;99.90;;;;;;4980186;28;20100;-79
2022/09/21 11:31:10;;;;;;;4.90;0.90;;;18.90;99.90;;;;;;4980103;28;20046;-79
2022/09/21 11:33:57;;;;;;;5.50;2.05;;;19.00;99.90;;;;;;4997494;28;20050;-80
2022/09/21 11:36:57;;;;;;;8.75;0.73;;;19.00;99.90;;;;;;4997582;28;20043;-80
2022/09/21 11:39:46;;;;;;;5.05;0.63;;;19.10;99.90;;;;;;4997408;28;20046;-80
2022/09/21 11:42:33;;;;;;;5.88;0.70;;;19.20;99.90;;;;;;4996751;28;20051;-79
2022/09/21 11:45:00;;;;;;;4.65;0.73;;;19.20;99.90;;;;;;4997129;28;20416;-80
2022/09/21 11:47:41;;;;;;;3.65;0.60;;;19.10;99.90;;;;;;4979477;28;20050;-80
2022/09/21 11:50:18;;;;;;;3.85;0.68;;;19.00;99.90;;;;;;4979553;28;20494;-81
2022/09/21 11:52:47;;;;;;;3.28;0.70;;;19.10;99.90;;;;;;4997009;28;20126;-80
2022/09/21 12:09:56;;;;;;;4.63;0.95;;;19.10;99.90;;;;;;4996462;28;20041;-80
2022/09/21 12:12:36;;;;;;;2.85;0.68;;;19.20;99.90;;;;;;4979124;28;20520;-82
2022/09/21 12:15:08;;;;;;;3.60;0.60;;;19.30;99.90;;;;;;4979130;28;20047;-80
2022/09/21 12:17:43;;;;;;;3.47;0.40;;;19.40;99.90;;;;;;4996722;28;20055;-81
2022/09/21 12:20:19;;;;;;;4.30;0.50;;;19.50;99.90;;;;;;4996748;28;20103;-80
2022/09/21 12:22:48;;;;;;;6.53;0.60;;;19.50;99.90;;;;;;4979096;28;20486;-79
2022/09/21 12:25:20;;;;;;;6.00;0.75;;;19.60;99.90;;;;;;4995956;28;20121;-79
2022/09/21 12:27:55;;;;;;;4.18;0.68;;;19.50;99.90;;;;;;4971298;28;20054;-80
2022/09/21 12:30:22;;;;;;;4.60;0.30;;;19.60;99.90;;;;;;4996259;28;20497;-80
2022/09/21 12:36:43;;;;;;;3.55;0.60;;;19.40;99.90;;;;;;5015906;28;20484;-79
2022/09/21 12:39:29;;;;;;;2.50;0.50;;;19.10;99.90;;;;;;5015697;28;20408;-79
2022/09/21 12:42:15;;;;;;;1.73;0.35;;;19.00;99.90;;;;;;5015817;28;20042;-80
2022/09/21 12:44:53;;;;;;;5.50;0.50;;;18.80;99.90;;;;;;5015732;28;20050;-79
2022/09/21 12:48:00;;;;;;;4.40;0.70;;;18.80;99.90;;;;;;5015911;28;20044;-79
2022/09/21 12:50:34;;;;;;;5.80;0.50;;;18.60;99.90;;;;;;4998145;28;20046;-79
2022/09/21 12:53:00;;;;;;;3.33;0.52;;;18.70;99.90;;;;;;4998205;28;20129;-80
2022/09/21 12:58:53;;;;;;;4.80;0.70;;;18.90;99.90;;;;;;5015602;28;20037;-80
2022/09/21 13:01:34;;;;;;;5.60;0.57;;;18.90;99.90;;;;;;5015583;28;20042;-79
2022/09/21 13:04:40;;;;;;;5.75;0.50;;;18.90;99.90;;;;;;5014909;28;20129;-80
2022/09/21 13:07:35;;;;;;;3.50;0.55;;;18.80;99.90;;;;;;5014774;28;20050;-80
2022/09/21 13:10:41;;;;;;;4.22;0.65;;;18.70;99.90;;;;;;5014920;28;20504;-80
2022/09/21 13:17:36;;;;;;;4.32;0.95;;;19.00;99.90;;;;;;4935411;29;20080;-79
2022/09/21 13:20:17;;;;;;;6.53;0.70;;;18.80;99.90;;;;;;4924715;28;20058;-80
2022/09/21 13:22:44;;;;;;;4.68;0.55;;;18.70;99.90;;;;;;4995401;28;20085;-79
2022/09/21 13:25:23;;;;;;;4.95;1.00;;;18.50;99.90;;;;;;4977807;28;20457;-79
2022/09/21 13:27:56;;;;;;;3.35;0.60;;;18.40;99.90;;;;;;4995544;28;20046;-79
2022/09/21 13:30:43;;;;;;;6.85;0.82;;;18.30;99.90;;;;;;4995238;28;20113;-79
2022/09/21 13:33:17;;;;;;;6.05;0.52;;;18.10;99.90;;;;;;4977922;28;20105;-79
2022/09/21 13:35:49;;;;;;;2.72;0.50;;;18.00;99.90;;;;;;4995189;28;20054;-79
2022/09/21 13:42:48;;;;;;;2.25;0.30;;;17.80;99.90;;;;;;4993006;28;20104;-79
2022/09/21 13:45:17;;;;;;;5.78;0.55;;;17.90;99.90;;;;;;4969109;28;20046;-79
2022/09/21 13:47:46;;;;;;;2.75;0.32;;;18.00;99.90;;;;;;4976850;28;20053;-79
2022/09/21 13:50:30;;;;;;;4.93;0.55;;;18.20;99.90;;;;;;4977123;28;20409;-79
2022/09/21 13:53:18;;;;;;;3.50;1.05;;;18.20;99.90;;;;;;4977202;28;20061;-79
2022/09/21 13:55:54;;;;;;;8.68;0.70;;;18.30;99.90;;;;;;4994669;28;20057;-79
2022/09/21 14:02:02;;;;;;;4.53;0.68;;;18.60;99.90;;;;;;4994860;28;20053;-80
2022/09/21 14:04:35;;;;;;;3.28;0.40;;;18.70;99.90;;;;;;4977123;28;20057;-80
2022/09/21 14:07:06;;;;;;;4.38;0.80;;;18.70;99.90;;;;;;4994205;28;20065;-80
2022/09/21 14:09:50;;;;;;;4.95;0.80;;;18.70;99.90;;;;;;4977410;28;20046;-80
2022/09/21 14:12:24;;;;;;;5.10;0.50;;;18.50;99.90;;;;;;4994754;28;20105;-79
2022/09/21 14:15:29;;;;;;;5.47;0.50;;;18.60;99.90;;;;;;4977210;28;20394;-78
2022/09/21 14:18:35;;;;;;;3.92;0.60;;;18.40;99.90;;;;;;4994523;28;20081;-80
2022/09/21 14:21:16;;;;;;;4.32;0.63;;;18.50;99.90;;;;;;4992674;28;20050;-80
2022/09/21 14:24:32;;;;;;;4.28;0.50;;;18.60;99.90;;;;;;4993524;28;20042;-80
2022/09/21 14:27:16;;;;;;;4.75;0.50;;;18.50;99.90;;;;;;4975864;28;20111;-81
2022/09/21 14:29:51;;;;;;;4.28;0.73;;;18.60;99.90;;;;;;4994408;28;20078;-80
2022/09/21 14:36:20;;;;;;;2.97;0.52;;;18.60;99.90;;;;;;4994275;28;20665;-80
2022/09/21 14:38:54;;;;;;;4.53;0.60;;;18.60;99.90;;;;;;4976896;28;20042;-80
2022/09/21 14:41:23;;;;;;;3.20;0.50;;;18.70;99.90;;;;;;4994169;28;20069;-80
2022/09/21 14:43:52;;;;;;;2.70;0.60;;;18.70;99.90;;;;;;4993993;28;20050;-79
2022/09/21 14:46:44;;;;;;;2.17;0.38;;;18.40;99.90;;;;;;4976811;28;20055;-79
2022/09/21 14:49:29;;;;;;;3.67;0.52;;;18.40;99.90;;;;;;4993984;28;20525;-80
2022/09/21 14:52:18;;;;;;;5.20;0.68;;;18.20;99.90;;;;;;4976588;28;20046;-80
2022/09/21 14:55:25;;;;;;;3.63;1.10;;;18.20;99.90;;;;;;4994208;28;20046;-80
2022/09/21 14:58:20;;;;;;;3.50;0.50;;;18.30;99.90;;;;;;4953037;29;20057;-79
2022/09/21 15:00:52;;;;;;;4.50;0.77;;;18.30;99.90;;;;;;4941030;29;20182;-79
2022/09/21 15:03:35;;;;;;;5.47;0.80;;;17.90;99.90;;;;;;4986818;28;20133;-80
2022/09/21 17:31:16;;;;;;;2.83;0.52;;;14.40;99.90;;;;;;5423241;23;20051;-83
2022/09/21 17:33:43;;;;;;;4.28;0.80;;;14.30;99.90;;;;;;4901315;29;20051;-83
2022/09/21 17:36:13;;;;;;;4.30;0.50;;;14.20;99.90;;;;;;4901527;29;20060;-83
2022/09/21 17:38:42;;;;;;;3.17;0.60;;;14.20;99.90;;;;;;4901473;29;20083;-83
2022/09/21 17:41:27;;;;;;;2.65;0.68;;;14.10;99.90;;;;;;4901432;29;20044;-83
2022/09/21 17:44:33;;;;;;;4.68;0.50;;;14.00;99.90;;;;;;4900946;29;20056;-82
2022/09/21 17:47:11;;;;;;;4.45;0.70;;;13.90;99.90;;;;;;4900558;29;20123;-82
2022/09/21 17:49:37;;;;;;;2.03;0.50;;;13.80;99.90;;;;;;4901331;29;20456;-83
2022/09/21 17:54:47;;;;;;;4.68;0.95;;;13.70;99.90;;;;;;4918052;29;20507;-82
2022/09/21 17:57:58;;;;;;;5.57;0.60;;;13.50;99.90;;;;;;4901342;29;20134;-83
2022/09/21 18:00:37;;;;;;;6.57;1.00;;;13.40;99.90;;;;;;4887481;29;20412;-83
2022/09/21 18:03:16;;;;;;;11.13;5.80;;;13.20;99.90;;;;;;4900863;29;20052;-83
2022/09/21 18:05:42;;;;;;;16.80;13.65;;;13.10;99.90;;;;;;4918102;29;20072;-82
2022/09/21 18:08:08;;;;;;;16.33;10.15;;;13.00;99.90;;;;;;4900959;29;20075;-83
2022/09/21 18:10:34;;;;;;;12.80;10.13;;;12.90;99.90;;;;;;4901245;29;20059;-83
2022/09/21 18:13:13;;;;;;;11.82;8.27;;;12.80;99.90;;;;;;4900874;29;20054;-83
2022/09/21 18:16:12;;;;;;;9.13;5.18;;;12.80;99.90;;;;;;4900794;29;20063;-83
2022/09/21 18:19:08;;;;;;;8.70;3.60;;;12.70;99.90;;;;;;4893254;29;20056;-83
2022/09/21 18:21:39;;;;;;;5.53;3.22;;;12.50;99.90;;;;;;4901189;29;20130;-83
2022/09/21 18:24:13;;;;;;;7.07;3.50;;;12.50;99.90;;;;;;4917756;29;20054;-83
2022/09/21 18:26:40;;;;;;;6.05;3.03;;;12.40;99.90;;;;;;4901443;29;20052;-83
2022/09/21 18:29:14;;;;;;;4.70;2.38;;;12.30;99.90;;;;;;4900746;29;20468;-83
2022/09/21 18:32:01;;;;;;;4.35;1.63;;;12.20;99.90;;;;;;4900314;29;20063;-83
2022/09/21 18:35:05;;;;;;;3.30;1.30;;;12.20;99.90;;;;;;4917422;29;20063;-83
2022/09/21 18:37:50;;;;;;;3.75;1.50;;;12.00;99.90;;;;;;4917608;29;20056;-83
2022/09/21 18:40:32;;;;;;;3.63;1.23;;;11.90;99.90;;;;;;4917880;29;20089;-82
2022/09/21 18:43:07;;;;;;;5.45;0.95;;;11.90;99.90;;;;;;4900710;29;20488;-83
2022/09/21 18:45:41;;;;;;;6.28;1.10;;;11.80;99.90;;;;;;4900800;29;20518;-81
2022/09/21 18:48:41;;;;;;;4.50;0.82;;;11.70;99.90;;;;;;4900482;29;20563;-82
2022/09/21 18:51:26;;;;;;;4.25;1.02;;;11.70;99.90;;;;;;4917456;29;20052;-82
2022/09/21 18:53:55;;;;;;;2.42;0.85;;;11.60;99.90;;;;;;4917543;29;20055;-84
2022/09/21 18:56:24;;;;;;;4.53;1.00;;;11.50;99.90;;;;;;4900638;29;20054;-83
2022/09/21 18:58:51;;;;;;;6.57;1.27;;;11.50;99.90;;;;;;4917351;29;20514;-83
2022/09/21 19:01:20;;;;;;;3.03;1.00;;;11.40;99.90;;;;;;4900447;29;20092;-83
2022/09/21 19:03:48;;;;;;;3.55;0.98;;;11.40;99.90;;;;;;4900303;29;20094;-83
2022/09/21 19:06:31;;;;;;;2.80;0.90;;;11.30;99.90;;;;;;4900464;29;20056;-83
2022/09/21 19:09:18;;;;;;;5.75;1.08;;;11.30;99.90;;;;;;4917288;29;20051;-83
2022/09/21 19:12:22;;;;;;;3.63;0.90;;;11.20;99.90;;;;;;4900464;29;20040;-83
2022/09/21 19:15:12;;;;;;;;;;;11.20;99.90;;;;;;4917575;29;20503;-84
2022/09/21 19:18:04;;;;;;;3.78;1.08;;;11.10;99.90;;;;;;4917146;29;19923;-83
2022/09/21 19:20:57;;;;;;;3.92;0.88;;;11.00;99.90;;;;;;4900376;29;20086;-82